sensor_id;sensor_type;location;lat;lon;timestamp;pressure;altitude;pressure_sealevel;temperature;humidity
27980;BME280;15315;50.836;4.430;2023-07-13T00:09:37;100962.97;;;21.73;54.54
27980;BME280;15315;50.836;4.430;2023-07-13T00:19:38;100954.97;;;22.02;54.04
27980;BME280;15315;50.836;4.430;2023-07-13T00:29:38;100952.31;;;21.78;55.66
27980;BME280;15315;50.836;4.430;2023-07-13T00:39:39;100965.38;;;21.68;56.12
27980;BME280;15315;50.836;4.430;2023-07-13T00:49:40;100962.09;;;21.48;57.20
27980;BME280;15315;50.836;4.430;2023-07-13T00:59:43;100975.81;;;21.32;58.02
27980;BME280;15315;50.836;4.430;2023-07-13T01:09:45;100985.88;;;21.07;59.37
27980;BME280;15315;50.836;4.430;2023-07-13T01:19:46;100991.91;;;21.35;58.54
27980;BME280;15315;50.836;4.430;2023-07-13T01:29:46;100995.19;;;21.14;59.74
27980;BME280;15315;50.836;4.430;2023-07-13T01:39:47;100995.03;;;20.74;62.05
27980;BME280;15315;50.836;4.430;2023-07-13T01:49:48;101002.34;;;20.57;63.09
27980;BME280;15315;50.836;4.430;2023-07-13T01:59:50;101004.41;;;20.55;64.08
27980;BME280;15315;50.836;4.430;2023-07-13T02:09:50;101011.19;;;20.43;65.32
27980;BME280;15315;50.836;4.430;2023-07-13T02:19:50;101012.00;;;20.35;65.48
27980;BME280;15315;50.836;4.430;2023-07-13T02:29:51;100997.09;;;20.30;66.04
27980;BME280;15315;50.836;4.430;2023-07-13T02:39:51;101000.38;;;20.33;66.53
27980;BME280;15315;50.836;4.430;2023-07-13T02:49:52;101009.63;;;19.81;69.94
27980;BME280;15315;50.836;4.430;2023-07-13T02:59:52;101013.63;;;19.95;70.52
27980;BME280;15315;50.836;4.430;2023-07-13T03:09:55;101017.53;;;19.92;70.62
27980;BME280;15315;50.836;4.430;2023-07-13T03:19:56;101016.75;;;20.00;70.68
27980;BME280;15315;50.836;4.430;2023-07-13T03:29:57;101019.59;;;19.47;74.38
27980;BME280;15315;50.836;4.430;2023-07-13T03:39:57;101029.69;;;19.90;72.07
27980;BME280;15315;50.836;4.430;2023-07-13T03:49:58;101042.81;;;19.60;74.90
27980;BME280;15315;50.836;4.430;2023-07-13T03:59:58;101046.75;;;19.84;75.05
27980;BME280;15315;50.836;4.430;2023-07-13T04:09:59;101055.00;;;20.09;74.76
27980;BME280;15315;50.836;4.430;2023-07-13T04:19:59;101067.91;;;19.99;76.16
27980;BME280;15315;50.836;4.430;2023-07-13T04:30:00;101070.78;;;20.15;75.37
27980;BME280;15315;50.836;4.430;2023-07-13T04:40:01;101070.56;;;20.09;76.33
27980;BME280;15315;50.836;4.430;2023-07-13T04:50:01;101078.28;;;20.39;75.61
27980;BME280;15315;50.836;4.430;2023-07-13T05:00:03;101083.44;;;20.42;75.88
27980;BME280;15315;50.836;4.430;2023-07-13T05:10:06;101099.88;;;20.42;76.16
27980;BME280;15315;50.836;4.430;2023-07-13T05:20:08;101107.78;;;20.19;78.63
27980;BME280;15315;50.836;4.430;2023-07-13T05:30:09;101105.06;;;20.53;77.07
27980;BME280;15315;50.836;4.430;2023-07-13T05:40:11;101118.47;;;20.64;75.66
27980;BME280;15315;50.836;4.430;2023-07-13T05:50:11;101115.91;;;20.88;75.05
27980;BME280;15315;50.836;4.430;2023-07-13T06:00:12;101135.19;;;20.79;75.67
27980;BME280;15315;50.836;4.430;2023-07-13T06:10:13;101133.34;;;20.87;75.44
27980;BME280;15315;50.836;4.430;2023-07-13T06:20:14;101151.31;;;21.24;74.64
27980;BME280;15315;50.836;4.430;2023-07-13T06:30:14;101157.38;;;21.01;75.11
27980;BME280;15315;50.836;4.430;2023-07-13T06:40:15;101163.31;;;21.97;71.59
27980;BME280;15315;50.836;4.430;2023-07-13T06:50:15;101164.00;;;21.83;71.60
27980;BME280;15315;50.836;4.430;2023-07-13T07:00:16;101166.88;;;21.73;71.75
27980;BME280;15315;50.836;4.430;2023-07-13T07:10:18;101173.50;;;22.37;68.50
27980;BME280;15315;50.836;4.430;2023-07-13T07:20:19;101183.22;;;22.55;67.19
27980;BME280;15315;50.836;4.430;2023-07-13T07:30:20;101188.72;;;21.83;69.13
27980;BME280;15315;50.836;4.430;2023-07-13T07:40:21;101183.69;;;21.54;70.81
27980;BME280;15315;50.836;4.430;2023-07-13T07:50:21;101191.13;;;21.86;69.87
27980;BME280;15315;50.836;4.430;2023-07-13T08:00:22;101189.63;;;22.23;68.37
27980;BME280;15315;50.836;4.430;2023-07-13T08:10:22;101187.53;;;22.58;66.53
27980;BME280;15315;50.836;4.430;2023-07-13T08:20:23;101184.97;;;22.56;66.67
27980;BME280;15315;50.836;4.430;2023-07-13T08:30:23;101190.41;;;23.35;63.25
27980;BME280;15315;50.836;4.430;2023-07-13T08:40:25;101189.69;;;24.03;59.59
27980;BME280;15315;50.836;4.430;2023-07-13T08:50:31;101197.69;;;23.90;58.46
27980;BME280;15315;50.836;4.430;2023-07-13T09:01:03;101199.31;;;23.99;57.55
27980;BME280;15315;50.836;4.430;2023-07-13T09:11:13;101191.78;;;23.70;57.54
27980;BME280;15315;50.836;4.430;2023-07-13T09:21:24;101202.47;;;24.19;56.13
27980;BME280;15315;50.836;4.430;2023-07-13T09:31:34;101206.78;;;23.90;57.01
27980;BME280;15315;50.836;4.430;2023-07-13T09:41:40;101210.59;;;24.35;56.41
27980;BME280;15315;50.836;4.430;2023-07-13T09:51:44;101209.41;;;25.04;54.70
27980;BME280;15315;50.836;4.430;2023-07-13T10:01:44;101207.69;;;25.03;53.10
27980;BME280;15315;50.836;4.430;2023-07-13T10:11:45;101199.66;;;24.27;54.02
27980;BME280;15315;50.836;4.430;2023-07-13T10:22:00;101223.97;;;25.12;51.15
27980;BME280;15315;50.836;4.430;2023-07-13T10:32:03;101220.44;;;24.89;53.72
27980;BME280;15315;50.836;4.430;2023-07-13T10:42:06;101227.44;;;25.79;49.59
27980;BME280;15315;50.836;4.430;2023-07-13T10:52:42;101225.69;;;25.93;48.52
27980;BME280;15315;50.836;4.430;2023-07-13T11:02:56;101230.13;;;26.30;48.20
27980;BME280;15315;50.836;4.430;2023-07-13T11:12:57;101226.94;;;25.40;48.02
27980;BME280;15315;50.836;4.430;2023-07-13T11:33:20;101229.47;;;26.49;46.63
27980;BME280;15315;50.836;4.430;2023-07-13T11:43:22;101226.50;;;26.08;46.76
27980;BME280;15315;50.836;4.430;2023-07-13T11:53:27;101236.69;;;26.71;45.70
27980;BME280;15315;50.836;4.430;2023-07-13T12:03:28;101244.97;;;25.86;46.57
27980;BME280;15315;50.836;4.430;2023-07-13T12:13:29;101243.91;;;25.87;45.96
27980;BME280;15315;50.836;4.430;2023-07-13T12:23:32;101249.56;;;26.36;45.00
27980;BME280;15315;50.836;4.430;2023-07-13T12:33:33;101257.84;;;26.36;44.49
27980;BME280;15315;50.836;4.430;2023-07-13T12:43:36;101282.03;;;23.83;54.09
27980;BME280;15315;50.836;4.430;2023-07-13T12:53:48;101293.84;;;23.99;59.71
27980;BME280;15315;50.836;4.430;2023-07-13T13:03:53;101301.25;;;22.89;83.22
27980;BME280;15315;50.836;4.430;2023-07-13T13:13:55;101267.78;;;24.55;73.52
27980;BME280;15315;50.836;4.430;2023-07-13T13:23:55;101263.31;;;26.30;58.28
27980;BME280;15315;50.836;4.430;2023-07-13T13:33:55;101264.25;;;26.58;53.31
27980;BME280;15315;50.836;4.430;2023-07-13T13:43:56;101250.72;;;27.66;49.16
27980;BME280;15315;50.836;4.430;2023-07-13T13:53:56;101248.53;;;28.02;47.54
27980;BME280;15315;50.836;4.430;2023-07-13T14:03:57;101254.09;;;27.55;47.05
27980;BME280;15315;50.836;4.430;2023-07-13T14:14:00;101250.59;;;27.87;45.30
27980;BME280;15315;50.836;4.430;2023-07-13T14:24:01;101254.22;;;27.40;46.03
27980;BME280;15315;50.836;4.430;2023-07-13T14:34:02;101239.28;;;27.76;45.57
27980;BME280;15315;50.836;4.430;2023-07-13T14:44:14;101245.41;;;27.30;46.23
27980;BME280;15315;50.836;4.430;2023-07-13T14:54:15;101226.91;;;27.78;43.47
27980;BME280;15315;50.836;4.430;2023-07-13T15:04:16;101216.16;;;28.22;43.36
27980;BME280;15315;50.836;4.430;2023-07-13T15:14:18;101216.19;;;28.68;42.31
27980;BME280;15315;50.836;4.430;2023-07-13T15:24:19;101207.66;;;28.63;42.36
27980;BME280;15315;50.836;4.430;2023-07-13T15:34:24;101203.16;;;28.36;42.00
27980;BME280;15315;50.836;4.430;2023-07-13T15:44:28;101195.22;;;28.00;42.20
27980;BME280;15315;50.836;4.430;2023-07-13T15:54:29;101181.31;;;27.81;41.98
27980;BME280;15315;50.836;4.430;2023-07-13T16:04:30;101178.84;;;29.48;40.21
27980;BME280;15315;50.836;4.430;2023-07-13T16:14:31;101193.00;;;30.96;35.47
27980;BME280;15315;50.836;4.430;2023-07-13T16:24:31;101197.63;;;30.84;35.29
27980;BME280;15315;50.836;4.430;2023-07-13T16:34:33;101186.38;;;31.99;35.54
27980;BME280;15315;50.836;4.430;2023-07-13T16:44:34;101184.06;;;34.10;33.53
27980;BME280;15315;50.836;4.430;2023-07-13T16:54:36;101184.56;;;35.07;28.33
27980;BME280;15315;50.836;4.430;2023-07-13T17:04:38;101191.22;;;36.09;28.21
27980;BME280;15315;50.836;4.430;2023-07-13T17:14:39;101199.72;;;36.78;26.47
27980;BME280;15315;50.836;4.430;2023-07-13T17:24:42;101192.03;;;34.18;27.72
27980;BME280;15315;50.836;4.430;2023-07-13T17:34:44;101183.03;;;34.78;28.47
27980;BME280;15315;50.836;4.430;2023-07-13T17:44:45;101187.53;;;35.82;27.15
27980;BME280;15315;50.836;4.430;2023-07-13T17:54:46;101177.38;;;36.93;26.22
27980;BME280;15315;50.836;4.430;2023-07-13T18:04:47;101190.66;;;33.76;26.97
27980;BME280;15315;50.836;4.430;2023-07-13T18:14:48;101196.66;;;31.99;29.11
27980;BME280;15315;50.836;4.430;2023-07-13T18:24:48;101205.06;;;30.41;30.56
27980;BME280;15315;50.836;4.430;2023-07-13T18:34:50;101211.78;;;29.58;32.01
27980;BME280;15315;50.836;4.430;2023-07-13T18:44:52;101214.06;;;28.90;33.15
27980;BME280;15315;50.836;4.430;2023-07-13T18:54:52;101221.34;;;28.58;33.75
27980;BME280;15315;50.836;4.430;2023-07-13T19:04:53;101220.00;;;27.61;35.40
27980;BME280;15315;50.836;4.430;2023-07-13T19:14:54;101220.41;;;27.51;36.14
27980;BME280;15315;50.836;4.430;2023-07-13T19:24:55;101218.38;;;27.32;36.52
27980;BME280;15315;50.836;4.430;2023-07-13T19:34:55;101224.47;;;27.15;37.17
27980;BME280;15315;50.836;4.430;2023-07-13T19:44:58;101234.72;;;26.65;38.56
27980;BME280;15315;50.836;4.430;2023-07-13T19:54:59;101238.22;;;25.89;40.34
27980;BME280;15315;50.836;4.430;2023-07-13T20:04:59;101249.91;;;25.91;40.35
27980;BME280;15315;50.836;4.430;2023-07-13T20:15:00;101267.78;;;26.10;40.23
27980;BME280;15315;50.836;4.430;2023-07-13T20:25:00;101267.16;;;25.93;40.87
27980;BME280;15315;50.836;4.430;2023-07-13T20:35:01;101282.53;;;25.22;42.97
27980;BME280;15315;50.836;4.430;2023-07-13T20:45:01;101278.63;;;25.32;43.06
27980;BME280;15315;50.836;4.430;2023-07-13T20:55:11;101277.19;;;25.50;42.69
27980;BME280;15315;50.836;4.430;2023-07-13T21:05:18;101286.44;;;25.28;42.75
27980;BME280;15315;50.836;4.430;2023-07-13T21:15:31;101277.56;;;25.62;42.33
27980;BME280;15315;50.836;4.430;2023-07-13T21:25:32;101286.41;;;25.57;42.62
27980;BME280;15315;50.836;4.430;2023-07-13T21:35:37;101290.03;;;25.28;43.45
27980;BME280;15315;50.836;4.430;2023-07-13T21:45:39;101297.31;;;24.92;44.68
27980;BME280;15315;50.836;4.430;2023-07-13T21:55:40;101293.03;;;24.90;45.02
27980;BME280;15315;50.836;4.430;2023-07-13T22:05:40;101302.91;;;24.84;45.03
27980;BME280;15315;50.836;4.430;2023-07-13T22:15:42;101304.47;;;24.41;45.98
27980;BME280;15315;50.836;4.430;2023-07-13T22:25:43;101299.84;;;24.56;45.41
27980;BME280;15315;50.836;4.430;2023-07-13T22:35:45;101288.22;;;24.69;45.49
27980;BME280;15315;50.836;4.430;2023-07-13T22:45:47;101292.06;;;24.37;45.94
27980;BME280;15315;50.836;4.430;2023-07-13T22:55:48;101276.25;;;24.54;45.47
27980;BME280;15315;50.836;4.430;2023-07-13T23:05:49;101267.31;;;24.52;45.78
27980;BME280;15315;50.836;4.430;2023-07-13T23:15:50;101259.25;;;24.28;46.54
27980;BME280;15315;50.836;4.430;2023-07-13T23:25:50;101265.47;;;23.91;47.42
27980;BME280;15315;50.836;4.430;2023-07-13T23:35:51;101253.16;;;23.79;47.57
27980;BME280;15315;50.836;4.430;2023-07-13T23:45:55;101253.75;;;23.66;48.00
27980;BME280;15315;50.836;4.430;2023-07-13T23:55:55;101246.09;;;23.37;48.87
